Time;durP1;ratioP1;P1;durP2;ratioP2;P2;SDS_P1;SDS_P2;PMS_P1;PMS_P2;Temp;Humidity;BMP_temperature;BMP_pressure;BME280_temperature;BME280_humidity;BME280_pressure;Samples;Min_cycle;Max_cycle;Signal;HPM_P1;HPM_P2
2023/02/08 00:00:03;;;;;;;;;60.75;49.00;;;;;2.75;100.00;103174.38;5100228;27;45370;-77
2023/02/08 00:02:29;;;;;;;;;57.00;47.75;;;;;2.80;100.00;103187.31;5099675;27;46494;-76
2023/02/08 00:04:54;;;;;;;;;59.25;47.50;;;;;2.73;100.00;103178.84;5099982;27;45304;-77
2023/02/08 00:07:19;;;;;;;;;50.50;46.00;;;;;2.77;100.00;103183.06;5110786;27;45951;-77
2023/02/08 00:09:45;;;;;;;;;60.00;49.00;;;;;2.71;100.00;103175.41;5100026;27;45305;-77
2023/02/08 00:12:10;;;;;;;;;58.25;47.25;;;;;2.69;100.00;103178.09;5098095;27;45869;-77
2023/02/08 00:14:35;;;;;;;;;59.75;50.50;;;;;2.63;100.00;103173.97;5099830;27;45335;-77
2023/02/08 00:17:01;;;;;;;;;63.25;53.75;;;;;2.66;100.00;103178.22;5096067;27;46393;-77
2023/02/08 00:19:26;;;;;;;;;63.00;51.00;;;;;2.63;100.00;103179.22;5098569;27;45270;-77
2023/02/08 00:21:51;;;;;;;;;64.75;54.75;;;;;2.58;100.00;103173.31;5095608;27;46220;-77
2023/02/08 00:24:17;;;;;;;;;68.00;55.25;;;;;2.55;100.00;103170.81;5099512;27;45233;-77
2023/02/08 00:26:42;;;;;;;;;52.00;46.75;;;;;2.56;100.00;103169.88;5098676;27;45349;-77
2023/02/08 00:29:07;;;;;;;;;65.25;54.75;;;;;2.51;100.00;103159.56;5086875;27;45222;-77
2023/02/08 00:31:33;;;;;;;;;62.50;50.75;;;;;2.50;100.00;103157.00;5099384;27;45409;-76
2023/02/08 00:33:58;;;;;;;;;61.75;51.25;;;;;2.46;100.00;103155.41;5099435;27;46086;-76
2023/02/08 00:36:23;;;;;;;;;72.00;55.25;;;;;2.37;100.00;103148.75;5099565;27;45358;-77
2023/02/08 00:38:49;;;;;;;;;73.50;58.50;;;;;2.35;100.00;103142.69;5099512;27;45426;-76
2023/02/08 00:41:14;;;;;;;;;65.50;53.75;;;;;2.37;100.00;103149.59;5099451;27;45455;-76
2023/02/08 00:43:39;;;;;;;;;69.00;56.75;;;;;2.34;100.00;103143.63;5099297;27;46257;-76
2023/02/08 00:46:06;;;;;;;;;67.25;55.50;;;;;2.34;100.00;103143.63;5100436;27;45353;-76
2023/02/08 00:48:32;;;;;;;;;72.00;58.25;;;;;2.33;100.00;103145.38;5096003;27;45420;-76
2023/02/08 00:50:58;;;;;;;;;57.50;46.50;;;;;2.33;100.00;103147.19;5096334;27;45316;-76
2023/02/08 00:53:23;;;;;;;;;64.50;53.00;;;;;2.30;100.00;103153.38;5102662;27;45294;-76
2023/02/08 00:55:53;;;;;;;;;65.75;55.00;;;;;2.25;100.00;103150.09;5102866;27;45382;-77
2023/02/08 00:58:18;;;;;;;;;66.50;56.00;;;;;2.22;100.00;103145.78;5101703;27;45302;-76
2023/02/08 01:00:43;;;;;;;;;68.75;57.25;;;;;2.18;100.00;103146.00;5102418;27;45544;-77
2023/02/08 01:03:09;;;;;;;;;66.25;55.25;;;;;2.15;100.00;103144.31;5102697;27;46470;-77
2023/02/08 01:05:36;;;;;;;;;69.50;57.25;;;;;2.18;100.00;103154.72;5102597;27;45585;-76
2023/02/08 01:08:02;;;;;;;;;69.25;56.25;;;;;2.17;100.00;103158.25;5115201;27;45432;-77
2023/02/08 01:10:27;;;;;;;;;69.25;56.25;;;;;2.09;100.00;103153.28;5102403;27;45399;-76
2023/02/08 01:12:53;;;;;;;;;56.75;47.75;;;;;2.05;100.00;103149.09;5101310;27;47089;-76
2023/02/08 01:15:18;;;;;;;;;67.50;57.00;;;;;2.06;100.00;103157.81;5102515;27;45368;-76
2023/02/08 01:17:43;;;;;;;;;66.00;55.75;;;;;1.98;100.00;103150.25;5102729;27;45403;-76
2023/02/08 01:20:09;;;;;;;;;73.75;58.00;;;;;2.09;100.00;103162.94;5100929;27;47434;-76
2023/02/08 01:22:35;;;;;;;;;67.75;55.00;;;;;2.06;100.00;103158.66;5100850;27;46977;-76
2023/02/08 01:25:00;;;;;;;;;70.50;57.50;;;;;2.03;100.00;103163.19;5102159;27;45319;-76
2023/02/08 01:27:25;;;;;;;;;81.00;61.00;;;;;1.97;100.00;103159.88;5102608;27;45403;-76
2023/02/08 01:29:51;;;;;;;;;75.25;61.50;;;;;2.00;100.00;103177.25;5097590;27;45600;-76
2023/02/08 01:32:17;;;;;;;;;73.00;58.00;;;;;1.98;100.00;103181.72;5101924;27;47071;-76
2023/02/08 01:34:42;;;;;;;;;72.75;59.75;;;;;1.91;100.00;103172.38;5102147;27;45283;-76
2023/02/08 01:37:07;;;;;;;;;66.50;55.50;;;;;1.92;100.00;103174.06;5102543;27;45385;-76
2023/02/08 01:39:33;;;;;;;;;73.50;57.50;;;;;1.88;100.00;103174.19;5101883;27;45261;-76
2023/02/08 01:41:58;;;;;;;;;69.75;55.75;;;;;1.89;100.00;103177.66;5102151;27;45304;-76
2023/02/08 01:45:01;;;;;;;;;67.25;55.25;;;;;1.93;100.00;103181.88;5101928;27;45203;-76
2023/02/08 01:47:27;;;;;;;;;65.00;53.75;;;;;1.90;100.00;103171.50;5092681;27;45356;-76
2023/02/08 01:49:52;;;;;;;;;68.50;56.75;;;;;1.94;100.00;103173.09;5101771;27;45253;-77
2023/02/08 01:52:21;;;;;;;;;65.50;52.50;;;;;1.90;100.00;103163.63;5102070;27;45339;-76
2023/02/08 01:54:55;;;;;;;;;68.75;56.00;;;;;1.90;100.00;103166.25;5101299;27;45299;-76
2023/02/08 01:57:22;;;;;;;;;70.00;56.25;;;;;1.89;100.00;103167.19;5087841;27;45805;-76
2023/02/08 01:59:52;;;;;;;;;70.25;57.00;;;;;1.91;100.00;103164.50;5101581;27;45433;-76
2023/02/08 02:02:21;;;;;;;;;68.50;53.75;;;;;1.86;100.00;103152.38;5101730;27;46282;-76
2023/02/08 02:04:48;;;;;;;;;72.00;58.00;;;;;1.87;100.00;103154.13;5100618;27;45309;-76
2023/02/08 02:07:15;;;;;;;;;72.25;59.50;;;;;1.82;100.00;103145.56;5112856;27;45344;-76
2023/02/08 02:09:56;;;;;;;;;72.75;58.25;;;;;1.86;100.00;103146.31;5100119;27;45461;-76
2023/02/08 02:12:23;;;;;;;;;70.25;54.75;;;;;1.70;100.00;103125.03;5101695;27;46412;-76
2023/02/08 02:14:48;;;;;;;;;70.00;56.75;;;;;1.76;100.00;103145.78;5100075;27;45562;-76
2023/02/08 02:17:17;;;;;;;;;68.50;54.50;;;;;1.75;100.00;103147.56;5101696;27;45229;-76
2023/02/08 02:20:07;;;;;;;;;67.75;53.75;;;;;1.71;100.00;103152.97;5096774;27;45956;-76
2023/02/08 02:23:02;;;;;;;;;65.00;50.25;;;;;1.66;100.00;103141.78;5087763;27;45491;-76
2023/02/08 02:25:50;;;;;;;;;62.75;51.75;;;;;1.65;100.00;103133.09;5096424;27;45857;-76
2023/02/08 02:28:40;;;;;;;;;68.00;54.00;;;;;1.62;100.00;103136.66;5080894;28;45382;-76
2023/02/08 02:31:35;;;;;;;;;66.00;53.50;;;;;1.59;100.00;103131.50;5080263;27;45658;-76
2023/02/08 02:34:14;;;;;;;;;61.50;51.50;;;;;1.58;100.00;103121.09;5081477;28;46001;-76
2023/02/08 02:36:48;;;;;;;;;48.25;43.00;;;;;1.59;100.00;103121.03;5081544;27;45289;-76
2023/02/08 02:39:34;;;;;;;;;49.75;43.75;;;;;1.56;100.00;103110.66;5081471;27;45271;-76
2023/02/08 02:45:20;;;;;;;;;60.75;48.25;;;;;1.53;100.00;103113.41;5081100;28;45325;-76
2023/02/08 02:47:51;;;;;;;;;57.00;49.75;;;;;1.53;100.00;103109.94;5081273;27;45542;-76
2023/02/08 02:50:39;;;;;;;;;61.00;50.50;;;;;1.46;100.00;103098.78;5089529;27;45433;-76
2023/02/08 02:53:17;;;;;;;;;55.25;46.00;;;;;1.46;100.00;103104.91;5100874;27;45347;-76
2023/02/08 02:55:46;;;;;;;;;63.50;51.00;;;;;1.40;100.00;103102.50;5101173;27;45543;-76
2023/02/08 02:58:15;;;;;;;;;49.00;44.25;;;;;1.45;100.00;103104.97;5101058;27;45301;-76
2023/02/08 03:00:41;;;;;;;;;54.00;45.75;;;;;1.41;100.00;103109.47;5101031;27;45500;-76
2023/02/08 03:03:20;;;;;;;;;60.25;50.25;;;;;1.42;100.00;103112.94;5099649;27;47050;-76
2023/02/08 03:05:46;;;;;;;;;62.00;50.75;;;;;1.30;100.00;103094.13;5101141;27;45434;-76
2023/02/08 03:08:17;;;;;;;;;60.75;50.25;;;;;1.42;100.00;103116.41;5110765;27;45567;-76
2023/02/08 03:10:57;;;;;;;;;64.00;50.50;;;;;1.41;100.00;103111.22;5100955;27;45303;-76
2023/02/08 03:14:12;;;;;;;;;57.00;49.75;;;;;1.35;100.00;103107.91;5100642;27;45303;-76
2023/02/08 03:16:43;;;;;;;;;61.75;49.00;;;;;1.35;100.00;103112.31;5100919;27;45659;-76
2023/02/08 03:19:42;;;;;;;;;54.25;46.50;;;;;1.34;100.00;103111.44;5100518;27;45419;-76
2023/02/08 03:22:15;;;;;;;;;56.75;49.00;;;;;1.33;100.00;103116.75;5100883;27;45170;-76
2023/02/08 03:24:58;;;;;;;;;42.25;41.50;;;;;1.29;100.00;103117.75;5100141;27;45411;-76
2023/02/08 03:27:33;;;;;;;;;46.50;41.00;;;;;1.23;100.00;103103.13;5100558;27;45379;-76
2023/02/08 03:30:13;;;;;;;;;47.25;42.50;;;;;1.29;100.00;103116.00;5100113;27;45326;-76
2023/02/08 03:32:46;;;;;;;;;38.25;36.75;;;;;1.30;100.00;103111.59;5100399;27;45214;-75
2023/02/08 03:35:26;;;;;;;;;39.25;33.75;;;;;1.33;100.00;103122.84;5100683;27;45442;-76
2023/02/08 03:38:02;;;;;;;;;37.25;33.50;;;;;1.35;100.00;103121.00;5100411;27;45380;-76
2023/02/08 03:40:36;;;;;;;;;43.50;38.00;;;;;1.37;100.00;103124.44;5100176;27;45349;-76
2023/02/08 03:43:08;;;;;;;;;40.75;39.00;;;;;1.35;100.00;103121.00;5100294;27;45806;-75
2023/02/08 03:45:49;;;;;;;;;34.00;34.00;;;;;1.40;100.00;103125.25;5100233;27;45421;-74
2023/02/08 03:48:18;;;;;;;;;35.25;35.25;;;;;1.41;100.00;103119.97;5100221;27;45404;-74
2023/02/08 03:50:49;;;;;;;;;40.75;38.75;;;;;1.47;100.00;103124.94;5099763;27;45298;-75
2023/02/08 03:53:19;;;;;;;;;37.25;34.75;;;;;1.49;100.00;103125.75;5100261;27;45486;-74
2023/02/08 03:55:49;;;;;;;;;41.00;34.75;;;;;1.47;100.00;103108.38;5094928;27;46330;-74
2023/02/08 03:58:30;;;;;;;;;48.00;40.00;;;;;1.53;100.00;103115.16;5089896;27;47382;-75
2023/02/08 04:01:06;;;;;;;;;36.00;35.25;;;;;1.55;100.00;103097.63;5098596;27;46098;-74
2023/02/08 04:03:33;;;;;;;;;46.50;39.50;;;;;1.61;100.00;103100.00;5099957;27;45465;-74
2023/02/08 04:05:58;;;;;;;;;43.25;39.00;;;;;1.63;100.00;103100.81;5102401;27;45397;-75
2023/02/08 04:08:24;;;;;;;;;39.75;37.00;;;;;1.59;100.00;103102.69;5104539;27;45375;-75
2023/02/08 04:10:49;;;;;;;;;41.00;37.50;;;;;1.55;100.00;103093.22;5099996;27;45353;-75
2023/02/08 04:13:15;;;;;;;;;39.25;37.75;;;;;1.61;100.00;103100.88;5099837;27;45436;-74
2023/02/08 04:15:40;;;;;;;;;38.75;36.75;;;;;1.66;100.00;103095.47;5100021;27;45360;-75
2023/02/08 04:18:05;;;;;;;;;38.00;32.50;;;;;1.65;100.00;103101.63;5099340;27;45998;-75
2023/02/08 04:20:31;;;;;;;;;46.75;40.50;;;;;1.66;100.00;103090.22;5099880;27;45441;-74
2023/02/08 04:22:56;;;;;;;;;41.25;36.75;;;;;1.64;100.00;103087.66;5099661;27;45289;-74
2023/02/08 04:25:21;;;;;;;;;42.25;39.50;;;;;1.60;100.00;103083.44;5099705;27;45298;-74
2023/02/08 04:27:47;;;;;;;;;35.75;34.50;;;;;1.57;100.00;103083.53;5099408;27;45849;-74
2023/02/08 04:30:13;;;;;;;;;39.50;39.50;;;;;1.58;100.00;103079.13;5099866;27;45536;-74
2023/02/08 04:32:38;;;;;;;;;40.25;36.50;;;;;1.54;100.00;103081.03;5098350;27;45442;-74
2023/02/08 04:35:04;;;;;;;;;39.75;35.25;;;;;1.53;100.00;103083.72;5099783;27;45161;-74
2023/02/08 04:37:30;;;;;;;;;40.50;29.75;;;;;1.53;100.00;103081.97;5099091;27;46347;-74
2023/02/08 04:39:55;;;;;;;;;38.00;36.75;;;;;1.50;100.00;103076.81;5099690;27;45244;-74
2023/02/08 04:42:20;;;;;;;;;42.00;39.50;;;;;1.43;100.00;103070.09;5099814;27;45288;-74
2023/02/08 04:44:45;;;;;;;;;37.25;34.75;;;;;1.37;100.00;103064.16;5099188;27;45372;-75
2023/02/08 04:47:11;;;;;;;;;43.50;39.50;;;;;1.40;100.00;103073.66;5099375;27;46456;-74
2023/02/08 04:49:36;;;;;;;;;42.25;38.00;;;;;1.32;100.00;103068.69;5099342;27;45294;-74
2023/02/08 04:52:02;;;;;;;;;43.25;40.00;;;;;1.30;100.00;103067.91;5099601;27;45334;-74
2023/02/08 04:54:27;;;;;;;;;44.75;39.25;;;;;1.28;100.00;103068.91;5099359;27;45343;-74
2023/02/08 04:56:52;;;;;;;;;42.25;40.00;;;;;1.21;100.00;103066.50;5099280;27;45394;-74
2023/02/08 04:59:18;;;;;;;;;34.25;31.25;;;;;1.21;100.00;103063.00;5099385;27;45325;-75
2023/02/08 05:01:44;;;;;;;;;43.00;38.25;;;;;1.12;100.00;103057.19;5099317;27;45402;-74
2023/02/08 05:04:09;;;;;;;;;40.00;36.25;;;;;1.13;100.00;103071.13;5099350;27;45289;-74
2023/02/08 05:06:35;;;;;;;;;42.00;37.25;;;;;1.05;100.00;103058.28;5106418;27;46010;-74
2023/02/08 05:09:00;;;;;;;;;36.25;36.25;;;;;1.06;100.00;103070.50;5099165;27;45362;-74
2023/02/08 05:11:26;;;;;;;;;43.75;41.75;;;;;0.97;100.00;103063.84;5099475;27;45540;-74
2023/02/08 05:13:51;;;;;;;;;42.75;39.75;;;;;1.04;100.00;103063.63;5094403;27;45917;-74
2023/02/08 05:16:17;;;;;;;;;43.50;39.25;;;;;1.00;100.00;103068.09;5092396;27;45294;-74
2023/02/08 05:18:42;;;;;;;;;32.75;32.00;;;;;1.00;100.00;103070.72;5098891;27;45260;-74
2023/02/08 05:21:08;;;;;;;;;33.75;33.25;;;;;0.95;100.00;103056.91;5097628;27;45271;-74
2023/02/08 05:23:33;;;;;;;;;44.00;37.00;;;;;0.96;100.00;103051.63;5093921;27;46106;-74
2023/02/08 05:25:59;;;;;;;;;40.25;37.75;;;;;0.92;100.00;103055.25;5091771;27;46096;-74
2023/02/08 05:28:24;;;;;;;;;51.75;42.75;;;;;0.97;100.00;103060.34;5097326;27;45638;-74
2023/02/08 05:30:51;;;;;;;;;49.25;44.00;;;;;0.97;100.00;103055.97;5097433;27;45576;-74
2023/02/08 05:33:17;;;;;;;;;40.75;37.50;;;;;0.98;100.00;103057.69;5101529;27;45791;-75
2023/02/08 05:35:46;;;;;;;;;38.75;34.50;;;;;0.99;100.00;103051.53;5097770;27;48593;-74
2023/02/08 05:38:11;;;;;;;;;43.50;41.00;;;;;1.03;100.00;103057.53;5101853;27;45329;-74
2023/02/08 05:40:36;;;;;;;;;49.50;42.50;;;;;1.03;100.00;103064.50;5102462;27;45792;-74
2023/02/08 05:43:02;;;;;;;;;43.50;39.25;;;;;0.97;100.00;103053.34;5102057;27;45424;-74
2023/02/08 05:45:27;;;;;;;;;46.75;41.00;;;;;0.91;100.00;103057.94;5089342;27;46354;-75
2023/02/08 05:47:53;;;;;;;;;44.50;39.00;;;;;0.92;100.00;103063.13;5101688;27;45265;-75
2023/02/08 05:50:18;;;;;;;;;44.75;42.50;;;;;0.92;100.00;103062.25;5102486;27;45364;-75
2023/02/08 05:52:43;;;;;;;;;41.75;40.00;;;;;0.95;100.00;103067.38;5097338;27;45535;-75
2023/02/08 05:55:09;;;;;;;;;46.50;37.75;;;;;0.91;100.00;103057.94;5092842;27;48452;-74
2023/02/08 05:57:34;;;;;;;;;34.25;32.75;;;;;0.84;100.00;103058.16;5102221;27;45274;-74
2023/02/08 05:59:59;;;;;;;;;43.75;41.00;;;;;0.90;100.00;103061.47;5100679;27;45605;-75
2023/02/08 06:02:25;;;;;;;;;40.50;35.50;;;;;0.91;100.00;103071.03;5100407;27;45455;-75
2023/02/08 06:04:50;;;;;;;;;40.75;39.75;;;;;0.90;100.00;103066.72;5093395;27;45563;-75
2023/02/08 06:07:15;;;;;;;;;46.00;40.00;;;;;0.91;100.00;103068.41;5085167;27;45527;-74
2023/02/08 06:09:41;;;;;;;;;45.50;40.75;;;;;0.88;100.00;103062.38;5090160;27;45414;-74
2023/02/08 06:12:06;;;;;;;;;43.75;40.00;;;;;0.90;100.00;103062.34;5101930;27;45269;-75
2023/02/08 06:14:32;;;;;;;;;45.00;41.00;;;;;0.94;100.00;103069.19;5100155;27;47216;-75
2023/02/08 06:16:57;;;;;;;;;48.75;41.50;;;;;0.95;100.00;103064.78;5101677;27;45399;-74
2023/02/08 06:19:23;;;;;;;;;45.50;39.50;;;;;0.96;100.00;103066.50;5101663;27;45391;-75
2023/02/08 06:21:48;;;;;;;;;44.75;38.75;;;;;0.86;100.00;103056.34;5101633;27;45333;-75
2023/02/08 06:24:15;;;;;;;;;40.50;36.50;;;;;1.00;100.00;103082.06;5099796;27;46560;-75
2023/02/08 06:26:42;;;;;;;;;45.75;40.25;;;;;0.99;100.00;103076.88;5091182;27;45475;-73
2023/02/08 06:29:07;;;;;;;;;31.75;29.25;;;;;0.99;100.00;103074.25;5084997;27;45486;-73
2023/02/08 06:31:33;;;;;;;;;43.25;39.00;;;;;1.01;100.00;103082.91;5082748;27;45283;-73
2023/02/08 06:33:58;;;;;;;;;45.00;41.25;;;;;1.00;100.00;103083.81;5101570;27;45306;-72
2023/02/08 06:36:24;;;;;;;;;49.00;44.50;;;;;0.98;100.00;103086.50;5090883;27;45242;-73
2023/02/08 06:38:49;;;;;;;;;46.50;39.50;;;;;1.00;100.00;103084.69;5091544;27;45464;-73
2023/02/08 06:41:14;;;;;;;;;52.50;41.00;;;;;0.95;100.00;103078.72;5096535;27;46317;-74
2023/02/08 06:43:40;;;;;;;;;41.50;37.00;;;;;0.96;100.00;103077.81;5091013;27;46524;-74
2023/02/08 06:46:07;;;;;;;;;45.25;41.25;;;;;1.02;100.00;103094.25;5101245;27;45274;-73
2023/02/08 06:48:36;;;;;;;;;45.25;40.00;;;;;0.89;100.00;103065.84;5101403;27;45316;-73
2023/02/08 06:51:01;;;;;;;;;46.25;40.75;;;;;1.05;100.00;103094.13;5099663;27;45392;-73
2023/02/08 06:53:27;;;;;;;;;46.75;41.00;;;;;1.04;100.00;103088.03;5101007;27;45255;-73
2023/02/08 06:55:52;;;;;;;;;40.00;38.25;;;;;1.00;100.00;103075.97;5100920;27;45225;-75
2023/02/08 06:58:18;;;;;;;;;46.00;42.25;;;;;1.05;100.00;103083.66;5090557;27;45250;-74
2023/02/08 07:00:46;;;;;;;;;40.50;36.25;;;;;1.03;100.00;103088.94;5098861;27;45996;-73
2023/02/08 07:03:14;;;;;;;;;44.75;41.00;;;;;1.03;100.00;103085.47;5100985;27;45279;-73
2023/02/08 07:05:39;;;;;;;;;48.00;42.50;;;;;0.99;100.00;103084.72;5100782;27;45298;-71
2023/02/08 07:08:06;;;;;;;;;43.50;40.50;;;;;1.03;100.00;103083.72;5108613;27;45352;-71
2023/02/08 07:10:32;;;;;;;;;44.50;35.25;;;;;1.00;100.00;103091.66;5099198;27;47245;-71
2023/02/08 07:12:58;;;;;;;;;36.00;35.25;;;;;0.97;100.00;103084.78;5100706;27;46447;-71
2023/02/08 07:15:23;;;;;;;;;43.00;41.50;;;;;0.98;100.00;103088.25;5100434;27;45278;-71
2023/02/08 07:17:49;;;;;;;;;53.00;43.75;;;;;1.03;100.00;103099.44;5097881;27;45463;-71
2023/02/08 07:20:14;;;;;;;;;41.00;38.25;;;;;0.99;100.00;103087.34;5100707;27;45290;-71
2023/02/08 07:22:40;;;;;;;;;39.75;37.75;;;;;1.04;100.00;103105.53;5100484;27;46540;-71
2023/02/08 07:25:07;;;;;;;;;41.50;39.50;;;;;0.90;100.00;103074.56;5100377;27;45362;-72
2023/02/08 07:27:33;;;;;;;;;38.75;37.50;;;;;1.00;100.00;103096.91;5100845;27;45375;-72
2023/02/08 07:29:59;;;;;;;;;45.50;43.25;;;;;1.01;100.00;103106.47;5100308;27;45310;-72
2023/02/08 07:32:24;;;;;;;;;45.75;43.00;;;;;0.99;100.00;103103.06;5093309;27;45543;-71
2023/02/08 07:34:49;;;;;;;;;42.50;40.25;;;;;0.97;100.00;103097.88;5100356;27;45483;-72
2023/02/08 07:37:15;;;;;;;;;42.00;38.75;;;;;0.97;100.00;103090.03;5093060;27;45814;-74
2023/02/08 07:39:41;;;;;;;;;54.75;44.50;;;;;0.93;100.00;103087.56;5085246;27;45766;-72
2023/02/08 07:42:10;;;;;;;;;53.00;46.25;;;;;0.99;100.00;103096.03;5097425;27;45376;-73
2023/02/08 07:44:37;;;;;;;;;48.25;43.50;;;;;1.04;100.00;103097.69;5098039;27;45541;-72
2023/02/08 07:47:03;;;;;;;;;41.25;39.50;;;;;1.08;100.00;103086.19;5099771;27;45423;-71
2023/02/08 07:49:28;;;;;;;;;31.50;29.75;;;;;1.05;100.00;103081.03;5087793;27;45464;-72
2023/02/08 07:51:54;;;;;;;;;50.75;43.25;;;;;1.08;100.00;103092.25;5094949;27;48229;-72
2023/02/08 07:54:19;;;;;;;;;52.00;44.00;;;;;1.06;100.00;103082.75;5099492;27;45485;-72
2023/02/08 07:56:44;;;;;;;;;45.25;41.75;;;;;1.05;100.00;103078.41;5100389;27;45415;-71
2023/02/08 07:59:10;;;;;;;;;43.75;39.25;;;;;1.09;100.00;103088.75;5091735;27;45473;-71
2023/02/08 08:01:35;;;;;;;;;57.50;43.25;;;;;1.04;100.00;103085.41;5095063;27;46014;-73
2023/02/08 08:04:01;;;;;;;;;45.75;41.00;;;;;1.11;100.00;103084.28;5100200;27;45306;-72
2023/02/08 08:06:26;;;;;;;;;49.50;45.25;;;;;1.13;100.00;103089.47;5104415;27;45467;-72
2023/02/08 08:08:52;;;;;;;;;51.75;43.00;;;;;1.14;100.00;103099.06;5099911;27;45570;-72
2023/02/08 08:11:19;;;;;;;;;52.00;46.00;;;;;1.18;100.00;103090.19;5085241;27;46351;-72
2023/02/08 08:13:44;;;;;;;;;54.75;44.50;;;;;1.24;100.00;103089.97;5097885;27;45381;-72
2023/02/08 08:16:10;;;;;;;;;44.50;41.25;;;;;1.26;100.00;103084.66;5100777;27;45220;-73
2023/02/08 08:18:36;;;;;;;;;55.00;44.00;;;;;1.26;100.00;103082.06;5100829;27;45493;-73
2023/02/08 08:21:01;;;;;;;;;49.00;43.75;;;;;1.31;100.00;103077.47;5094913;27;47133;-75
2023/02/08 08:23:28;;;;;;;;;46.25;42.75;;;;;1.41;100.00;103079.78;5095812;27;45424;-75
2023/02/08 08:25:53;;;;;;;;;47.00;43.25;;;;;1.46;100.00;103077.81;5100040;27;45424;-75
2023/02/08 08:28:19;;;;;;;;;52.75;44.25;;;;;1.49;100.00;103077.72;5097871;27;46227;-75
2023/02/08 08:30:44;;;;;;;;;45.00;43.00;;;;;1.53;100.00;103071.47;5098127;27;45554;-75
2023/02/08 08:33:12;;;;;;;;;51.00;43.75;;;;;1.62;100.00;103080.75;5099281;27;45488;-75
2023/02/08 08:35:38;;;;;;;;;49.00;43.50;;;;;1.69;100.00;103078.75;5099947;27;45243;-73
2023/02/08 08:38:03;;;;;;;;;70.25;57.00;;;;;1.74;100.00;103079.44;5098770;27;45436;-74
2023/02/08 08:40:29;;;;;;;;;59.50;50.50;;;;;1.82;100.00;103072.13;5099731;27;45251;-74
2023/02/08 08:42:55;;;;;;;;;67.00;55.25;;;;;1.87;100.00;103079.81;5099138;27;45211;-75
2023/02/08 08:45:21;;;;;;;;;85.00;68.00;;;;;1.91;100.00;103059.59;5095021;27;45235;-74
2023/02/08 08:47:46;;;;;;;;;59.00;47.00;;;;;2.06;100.00;103073.88;5095500;27;45982;-74
2023/02/08 08:50:11;;;;;;;;;55.00;47.75;;;;;2.09;100.00;103073.72;5079058;27;46031;-74
2023/02/08 08:52:39;;;;;;;;;65.50;53.00;;;;;2.17;100.00;103082.16;5088923;27;45252;-75
2023/02/08 08:55:04;;;;;;;;;47.00;43.00;;;;;2.20;100.00;103073.31;5099279;27;45259;-74
2023/02/08 08:57:30;;;;;;;;;60.25;50.50;;;;;2.25;100.00;103071.38;5098786;27;45377;-75
2023/02/08 08:59:55;;;;;;;;;55.25;46.25;;;;;2.26;100.00;103060.81;5097942;27;48480;-74
2023/02/08 09:02:21;;;;;;;;;47.50;42.00;;;;;2.35;100.00;103050.84;5099194;27;45324;-76
2023/02/08 09:04:46;;;;;;;;;45.75;40.00;;;;;2.42;100.00;103054.06;5097885;27;45403;-76
2023/02/08 09:07:11;;;;;;;;;59.25;49.75;;;;;2.47;100.00;103058.22;5108198;27;45492;-76
2023/02/08 09:09:37;;;;;;;;;54.50;46.50;;;;;2.47;100.00;103041.59;5097904;27;48363;-78
2023/02/08 09:12:03;;;;;;;;;36.25;26.75;;;;;2.58;100.00;103049.91;5100278;27;45277;-77
2023/02/08 09:14:28;;;;;;;;;43.25;40.50;;;;;2.63;100.00;103047.91;5102104;27;45340;-77
2023/02/08 09:16:54;;;;;;;;;16.00;6.50;;;;;2.66;100.00;103041.66;5101060;27;45423;-77
2023/02/08 09:19:19;;;;;;;;;53.50;42.75;;;;;2.70;100.00;103037.16;5101090;27;46017;-76
2023/02/08 09:21:45;;;;;;;;;46.75;39.50;;;;;2.76;100.00;103034.28;5101651;27;45716;-76
2023/02/08 09:24:10;;;;;;;;;59.00;45.50;;;;;2.79;100.00;103031.53;5102647;27;45360;-77
2023/02/08 09:26:36;;;;;;;;;49.50;43.25;;;;;2.84;100.00;103031.31;5102216;27;45423;-76
2023/02/08 09:29:02;;;;;;;;;43.50;39.75;;;;;2.85;100.00;103040.91;5097764;27;48441;-75
2023/02/08 09:31:37;;;;;;;;;49.00;44.00;;;;;2.92;100.00;103039.72;5099521;27;45258;-77
2023/02/08 09:34:04;;;;;;;;;69.75;57.00;;;;;2.93;100.00;103020.38;5102618;27;45420;-77
2023/02/08 09:36:37;;;;;;;;;55.25;44.00;;;;;3.03;100.00;103039.25;5098842;27;45691;-81
2023/02/08 09:39:19;;;;;;;;;59.75;46.00;;;;;3.08;100.00;103021.50;5084591;27;46963;-79
2023/02/08 09:41:51;;;;;;;;;59.00;46.25;;;;;3.17;100.00;103024.66;5100999;27;45354;-77
2023/02/08 09:44:27;;;;;;;;;46.25;41.00;;;;;3.20;100.00;103025.34;5100982;27;45353;-76
2023/02/08 09:47:10;;;;;;;;;48.25;40.25;;;;;3.28;100.00;103019.75;5102159;27;45384;-77
2023/02/08 09:49:42;;;;;;;;;57.00;44.25;;;;;3.27;99.20;103016.25;5097483;27;48742;-77
2023/02/08 09:52:12;;;;;;;;;45.50;41.25;;;;;3.34;99.52;103021.22;5099767;27;45515;-77
2023/02/08 09:54:51;;;;;;;;;60.25;49.75;;;;;3.43;100.00;103023.44;5102189;27;45280;-77
2023/02/08 09:57:21;;;;;;;;;47.75;42.50;;;;;3.46;99.00;103019.81;5102175;27;45320;-77
2023/02/08 09:59:54;;;;;;;;;80.25;61.50;;;;;3.50;99.69;103016.16;5100705;27;47174;-75
2023/02/08 10:02:28;;;;;;;;;57.00;48.25;;;;;3.60;99.30;103025.31;5088316;27;45438;-75
2023/02/08 10:04:56;;;;;;;;;62.00;51.75;;;;;3.68;98.28;103024.91;5100676;27;45350;-75
2023/02/08 10:07:24;;;;;;;;;47.50;41.75;;;;;3.68;98.94;103005.69;5109347;27;45507;-74
2023/02/08 10:09:50;;;;;;;;;48.00;41.75;;;;;3.80;97.27;103010.34;5101703;27;45321;-75
2023/02/08 10:12:27;;;;;;;;;51.25;43.50;;;;;3.89;97.65;103023.06;5088418;27;45283;-76
2023/02/08 10:15:05;;;;;;;;;53.50;44.50;;;;;3.96;97.30;103028.03;5098697;27;45373;-75
2023/02/08 10:17:59;;;;;;;;;74.00;58.50;;;;;4.03;96.81;103027.66;5096692;27;45592;-76
2023/02/08 10:20:40;;;;;;;;;54.25;44.50;;;;;4.09;96.91;103026.50;5094826;27;46707;-76
2023/02/08 10:23:30;;;;;;;;;46.75;40.00;;;;;4.15;96.42;103027.97;5098698;27;45274;-76
2023/02/08 10:26:17;;;;;;;;;51.50;42.00;;;;;4.24;96.78;103029.31;5097035;27;45276;-76
2023/02/08 10:29:10;;;;;;;;;58.00;48.00;;;;;4.30;95.53;103034.28;5089445;27;45698;-76
2023/02/08 10:31:42;;;;;;;;;44.75;39.25;;;;;4.32;95.88;103024.53;5096709;27;46991;-76
2023/02/08 10:34:32;;;;;;;;;52.50;44.75;;;;;4.40;95.21;103035.50;5092232;27;45435;-72
2023/02/08 10:37:00;;;;;;;;;76.00;58.00;;;;;4.50;95.59;103032.44;5089717;27;45418;-73
2023/02/08 10:39:30;;;;;;;;;55.25;45.25;;;;;4.56;94.87;103029.50;5099403;27;45492;-72
2023/02/08 10:41:55;;;;;;;;;58.00;49.50;;;;;4.64;94.41;103026.47;5093600;27;46380;-72
2023/02/08 10:44:45;;;;;;;;;48.25;41.50;;;;;4.70;93.84;103020.03;5097186;27;45309;-72
2023/02/08 10:47:23;;;;;;;;;46.00;41.00;;;;;4.80;93.25;103018.63;5101161;27;45356;-72
2023/02/08 10:50:14;;;;;;;;;41.25;37.25;;;;;4.86;91.98;103023.56;5101335;27;45292;-72
2023/02/08 10:52:40;;;;;;;;;30.00;28.00;;;;;4.90;89.99;103022.47;5098820;27;45322;-72
2023/02/08 10:55:17;;;;;;;;;27.25;26.50;;;;;5.00;88.16;103028.09;5096014;27;45318;-72
2023/02/08 10:57:47;;;;;;;;;34.25;27.25;;;;;5.10;88.25;103025.00;5087293;27;45390;-72
2023/02/08 11:00:18;;;;;;;;;29.50;27.50;;;;;5.16;87.35;103017.63;5100977;27;46117;-71
2023/02/08 11:02:45;;;;;;;;;27.00;22.75;;;;;5.25;88.29;103024.19;5100587;27;46050;-71
2023/02/08 11:05:33;;;;;;;;;27.50;25.25;;;;;5.36;86.64;103026.22;5098787;27;45341;-71
2023/02/08 11:08:05;;;;;;;;;37.00;34.00;;;;;5.48;84.55;103018.59;5107980;27;45671;-72
2023/02/08 11:10:33;;;;;;;;;24.50;24.50;;;;;5.56;84.32;103021.63;5100646;27;45373;-72
2023/02/08 11:13:04;;;;;;;;;27.00;24.75;;;;;5.69;84.12;103013.91;5099908;27;48339;-74
2023/02/08 11:15:50;;;;;;;;;24.50;23.25;;;;;5.74;81.58;103006.56;5082693;27;45408;-74
2023/02/08 11:18:23;;;;;;;;;30.50;27.25;;;;;5.82;81.74;102995.59;5097022;27;45471;-74
2023/02/08 11:20:52;;;;;;;;;30.00;28.25;;;;;5.89;81.93;103007.50;5095887;27;47641;-73